Boa Esperanca, Brazil
Current Conditions -  °F | °C
As of 6:00 AM on Tuesday 21 Oct 2014 (Local Time) from SBFZ Reporting Station
Broken Clouds Broken Clouds  
Wind Chill: 79°   Ceiling: 2000
Heat Index: 81°   Visibility: 6mi
Dew Point: 68°   Wind: 13mph
Humidity: 69%   Direction: 90°E
Pressure: 29.88"   Gusts: NA
Location:  4.13°S, 38.75°W
Report Text: SBFZ 210900Z 09011KT 9999 BKN020 FEW030TCU 26/20 Q1012
Loading
Personal Weather Stations






























Interactive Weather Map
Tropical Storm Tracking
New forecast layout! Learn more

10-Day Weather Forecast

Advertisements
Track Severe Weather on mobile